createdAt,value
2023-06-07T00:00:09.994Z,100845.91
2023-06-07T00:02:44.438Z,100837.59
2023-06-07T00:05:16.184Z,100831.44
2023-06-07T00:07:45.775Z,100831.59
2023-06-07T00:10:13.721Z,100830.75
2023-06-07T00:12:42.851Z,100828.50
2023-06-07T00:15:12.398Z,100828.66
2023-06-07T00:17:42.502Z,100837.28
2023-06-07T00:20:14.011Z,100830.91
2023-06-07T00:22:42.213Z,100835.81
2023-06-07T00:25:10.569Z,100842.03
2023-06-07T00:27:38.492Z,100833.06
2023-06-07T00:30:07.281Z,100832.06
2023-06-07T00:32:35.777Z,100840.53
2023-06-07T00:35:03.886Z,100845.56
2023-06-07T00:37:32.035Z,100845.22
2023-06-07T00:40:00.805Z,100845.06
2023-06-07T00:42:28.987Z,100836.91
2023-06-07T00:44:58.703Z,100852.53
2023-06-07T00:47:28.228Z,100841.47
2023-06-07T00:49:56.693Z,100842.78
2023-06-07T00:52:25.110Z,100844.38
2023-06-07T00:54:54.119Z,100849.78
2023-06-07T00:57:22.308Z,100847.81
2023-06-07T00:59:50.270Z,100834.75
2023-06-07T01:02:18.481Z,100840.16
2023-06-07T01:04:47.025Z,100839.50
2023-06-07T01:07:18.664Z,100841.13
2023-06-07T01:09:46.770Z,100836.41
2023-06-07T01:12:17.714Z,100835.59
2023-06-07T01:14:50.858Z,100845.19
2023-06-07T01:17:22.834Z,100828.88
2023-06-07T01:19:54.407Z,100840.28
2023-06-07T01:22:34.087Z,100840.94
2023-06-07T01:25:02.233Z,100836.59
2023-06-07T01:27:32.099Z,100843.44
2023-06-07T01:30:01.123Z,100848.59
2023-06-07T01:32:30.750Z,100851.88
2023-06-07T01:34:59.143Z,100848.59
2023-06-07T01:37:28.172Z,100841.44
2023-06-07T01:39:57.723Z,100836.44
2023-06-07T01:42:26.303Z,100827.97
2023-06-07T01:44:57.232Z,100833.66
2023-06-07T01:47:25.781Z,100828.59
2023-06-07T01:49:53.778Z,100831.88
2023-06-07T01:52:21.733Z,100836.09
2023-06-07T01:54:50.225Z,100815.91
2023-06-07T01:57:33.328Z,100821.28
2023-06-07T02:00:23.325Z,100820.94
2023-06-07T02:03:00.914Z,100831.19
2023-06-07T02:05:50.166Z,100836.88
2023-06-07T02:08:31.434Z,100822.72
2023-06-07T02:11:00.235Z,100817.97
2023-06-07T02:13:31.372Z,100829.34
2023-06-07T02:15:59.557Z,100823.56
2023-06-07T02:18:27.517Z,100830.06
2023-06-07T02:20:55.485Z,100818.81
2023-06-07T02:23:23.600Z,100820.00
2023-06-07T02:25:51.564Z,100829.63
2023-06-07T02:28:19.513Z,100825.09
2023-06-07T02:30:48.074Z,100817.13
2023-06-07T02:33:16.065Z,100816.66
2023-06-07T02:35:47.134Z,100823.50
2023-06-07T02:38:15.899Z,100831.50
2023-06-07T02:40:43.833Z,100836.06
2023-06-07T02:43:11.808Z,100842.91
2023-06-07T02:45:39.719Z,100848.44
2023-06-07T02:48:08.527Z,100844.19
2023-06-07T02:50:36.655Z,100841.59
2023-06-07T02:53:07.491Z,100840.28
2023-06-07T02:55:35.723Z,100855.94
2023-06-07T02:58:06.750Z,100852.03
2023-06-07T03:00:37.503Z,100841.44
2023-06-07T03:03:12.444Z,100859.03
2023-06-07T03:05:49.301Z,100842.91
2023-06-07T03:08:18.382Z,100844.25
2023-06-07T03:10:46.477Z,100841.78
2023-06-07T03:13:21.145Z,100840.19
2023-06-07T03:15:49.326Z,100836.44
2023-06-07T03:18:17.524Z,100837.75
2023-06-07T03:20:51.895Z,100841.63
2023-06-07T03:23:21.031Z,100831.69
2023-06-07T03:25:51.293Z,100835.59
2023-06-07T03:28:25.178Z,100841.00
2023-06-07T03:30:53.351Z,100841.00
2023-06-07T03:33:27.829Z,100833.00
2023-06-07T03:35:57.656Z,100845.72
2023-06-07T03:38:32.662Z,100835.63
2023-06-07T03:41:00.688Z,100837.09
2023-06-07T03:43:34.875Z,100851.97
2023-06-07T03:46:03.032Z,100842.81
2023-06-07T03:48:31.324Z,100862.38
2023-06-07T03:51:01.615Z,100860.59
2023-06-07T03:53:30.262Z,100859.44
2023-06-07T03:55:58.327Z,100851.63
2023-06-07T03:58:28.756Z,100854.75
2023-06-07T04:00:57.595Z,100846.09
2023-06-07T04:03:29.538Z,100850.66
2023-06-07T04:06:00.377Z,100844.47
2023-06-07T04:08:28.802Z,100837.78
2023-06-07T04:10:56.957Z,100852.94
2023-06-07T04:13:25.045Z,100847.22
2023-06-07T04:15:53.441Z,100844.47
2023-06-07T04:18:21.757Z,100854.38
2023-06-07T04:20:51.823Z,100847.38
2023-06-07T04:23:19.773Z,100862.53
2023-06-07T04:25:49.415Z,100858.97
2023-06-07T04:28:18.574Z,100851.97
2023-06-07T04:30:47.233Z,100850.66
2023-06-07T04:33:18.672Z,100854.72
2023-06-07T04:35:51.618Z,100861.06
2023-06-07T04:38:23.379Z,100849.63
2023-06-07T04:40:55.990Z,100866.59
2023-06-07T04:43:36.846Z,100851.97
2023-06-07T04:46:06.701Z,100859.03
2023-06-07T04:48:42.957Z,100863.84
2023-06-07T04:51:14.698Z,100859.19
2023-06-07T04:53:46.457Z,100871.97
2023-06-07T04:56:23.924Z,100867.75
2023-06-07T04:58:56.880Z,100866.41
2023-06-07T05:01:29.064Z,100875.63
2023-06-07T05:04:04.254Z,100869.41
2023-06-07T05:06:41.756Z,100869.69
2023-06-07T05:09:10.632Z,100872.31
2023-06-07T05:11:38.724Z,100869.81
2023-06-07T05:14:07.057Z,100868.25
2023-06-07T05:16:35.528Z,100872.44
2023-06-07T05:19:05.284Z,100858.75
2023-06-07T05:21:37.245Z,100865.38
2023-06-07T05:24:06.779Z,100862.50
2023-06-07T05:26:34.872Z,100871.34
2023-06-07T05:29:02.930Z,100872.25
2023-06-07T05:31:32.015Z,100868.34
2023-06-07T05:34:00.153Z,100873.47
2023-06-07T05:36:29.050Z,100866.53
2023-06-07T05:39:00.300Z,100862.63
2023-06-07T05:41:28.798Z,100882.16
2023-06-07T05:43:56.684Z,100866.75
2023-06-07T05:46:24.837Z,100878.47
2023-06-07T05:48:52.825Z,100879.06
2023-06-07T05:51:24.101Z,100884.41
2023-06-07T05:53:52.043Z,100880.59
2023-06-07T05:56:22.364Z,100876.41
2023-06-07T05:58:50.872Z,100888.47
2023-06-07T06:01:46.933Z,100893.00
2023-06-07T06:04:20.072Z,100882.66
2023-06-07T06:06:50.974Z,100881.53
2023-06-07T06:09:21.811Z,100888.94
2023-06-07T06:11:53.508Z,100893.03
2023-06-07T06:14:27.304Z,100889.41
2023-06-07T06:16:57.486Z,100898.13
2023-06-07T06:19:27.899Z,100893.84
2023-06-07T06:21:59.115Z,100897.75
2023-06-07T06:24:29.558Z,100891.00
2023-06-07T06:26:59.552Z,100892.38
2023-06-07T06:29:31.146Z,100884.69
2023-06-07T06:32:02.891Z,100896.16
2023-06-07T06:34:38.363Z,100882.13
2023-06-07T06:37:08.714Z,100881.69
2023-06-07T06:39:39.012Z,100884.38
2023-06-07T06:42:09.586Z,100890.69
2023-06-07T06:45:09.379Z,100893.56
2023-06-07T06:47:43.462Z,100893.91
2023-06-07T06:52:53.027Z,100894.69
2023-06-07T06:55:23.298Z,100900.78
2023-06-07T06:57:53.589Z,100900.09
2023-06-07T07:00:27.124Z,100902.88
2023-06-07T07:03:03.486Z,100906.69
2023-06-07T07:05:38.672Z,100889.19
2023-06-07T07:08:09.146Z,100902.78
2023-06-07T07:10:39.678Z,100896.81
2023-06-07T07:13:10.064Z,100908.50
2023-06-07T07:15:40.156Z,100890.63
2023-06-07T07:18:10.354Z,100888.53
2023-06-07T07:20:44.389Z,100899.03
2023-06-07T07:23:16.757Z,100899.03
2023-06-07T07:25:47.011Z,100902.53
2023-06-07T07:28:17.590Z,100901.81
2023-06-07T07:30:49.247Z,100901.00
2023-06-07T07:33:19.547Z,100899.38
2023-06-07T07:35:51.073Z,100890.56
2023-06-07T07:38:24.397Z,100892.44
2023-06-07T07:40:57.507Z,100888.78
2023-06-07T07:43:31.172Z,100889.28
2023-06-07T07:46:03.577Z,100911.00
2023-06-07T07:48:33.904Z,100876.78
2023-06-07T07:51:05.804Z,100891.34
2023-06-07T07:53:36.218Z,100892.81
2023-06-07T07:56:06.579Z,100893.59
2023-06-07T07:58:38.138Z,100893.34
2023-06-07T08:01:10.803Z,100897.03
2023-06-07T08:03:43.553Z,100893.44
2023-06-07T08:06:13.928Z,100897.28
2023-06-07T08:08:44.383Z,100901.56
2023-06-07T08:11:14.681Z,100901.69
2023-06-07T08:13:44.933Z,100887.94
2023-06-07T08:16:16.719Z,100881.09
2023-06-07T08:18:51.396Z,100892.72
2023-06-07T08:21:21.673Z,100890.97
2023-06-07T08:23:53.433Z,100895.34
2023-06-07T08:26:24.861Z,100889.03
2023-06-07T08:28:55.138Z,100888.91
2023-06-07T08:31:30.348Z,100890.59
2023-06-07T08:34:01.013Z,100895.44
2023-06-07T08:36:33.018Z,100896.41
2023-06-07T08:39:03.495Z,100889.41
2023-06-07T08:41:33.735Z,100901.53
2023-06-07T08:44:03.626Z,100894.56
2023-06-07T08:46:33.991Z,100899.19
2023-06-07T08:49:05.309Z,100897.38
2023-06-07T08:51:38.814Z,100903.41
2023-06-07T08:54:12.765Z,100897.06
2023-06-07T08:56:44.960Z,100895.13
2023-06-07T08:59:20.700Z,100898.81
2023-06-07T09:01:50.794Z,100900.16
2023-06-07T09:04:21.842Z,100891.13
2023-06-07T09:06:53.309Z,100901.19
2023-06-07T09:09:23.954Z,100900.28
2023-06-07T09:11:54.935Z,100900.66
2023-06-07T09:14:28.072Z,100899.25
2023-06-07T09:17:00.295Z,100906.38
2023-06-07T09:19:39.961Z,100906.16
2023-06-07T09:22:16.912Z,100896.19
2023-06-07T09:24:48.386Z,100895.94
2023-06-07T09:27:31.956Z,100882.81
2023-06-07T09:30:19.428Z,100885.25
2023-06-07T09:32:50.937Z,100888.72
2023-06-07T09:35:21.464Z,100891.66
2023-06-07T09:38:03.094Z,100884.56
2023-06-07T09:40:36.775Z,100876.88
2023-06-07T09:43:07.805Z,100866.63
2023-06-07T09:45:38.126Z,100867.97
2023-06-07T09:48:09.876Z,100870.31
2023-06-07T09:50:40.398Z,100869.22
2023-06-07T09:53:11.273Z,100863.09
2023-06-07T09:55:42.228Z,100871.34
2023-06-07T09:58:22.034Z,100874.28
2023-06-07T10:00:56.040Z,100879.09
2023-06-07T10:03:37.620Z,100861.78
2023-06-07T10:06:08.130Z,100878.34
2023-06-07T10:08:38.968Z,100868.34
2023-06-07T10:11:10.168Z,100877.41
2023-06-07T10:13:41.714Z,100860.56
2023-06-07T10:16:17.399Z,100870.78
2023-06-07T10:18:53.240Z,100873.41
2023-06-07T10:21:24.240Z,100871.59
2023-06-07T10:24:01.880Z,100857.78
2023-06-07T10:26:51.176Z,100858.41
2023-06-07T10:29:32.052Z,100845.31
2023-06-07T10:32:17.611Z,100853.66
2023-06-07T10:34:56.403Z,100855.91
2023-06-07T10:37:36.020Z,100837.94
2023-06-07T10:40:12.369Z,100850.41
2023-06-07T10:42:49.495Z,100840.63
2023-06-07T10:45:21.834Z,100837.66
2023-06-07T10:47:53.861Z,100841.59
2023-06-07T10:50:30.542Z,100836.34
2023-06-07T10:53:03.121Z,100832.63
2023-06-07T10:55:34.507Z,100830.56
2023-06-07T10:58:04.460Z,100829.53
2023-06-07T11:00:40.780Z,100829.00
2023-06-07T11:03:18.427Z,100829.50
2023-06-07T11:06:02.164Z,100837.00
2023-06-07T11:08:34.727Z,100823.97
2023-06-07T11:11:07.257Z,100818.78
2023-06-07T11:13:46.761Z,100823.38
2023-06-07T11:16:25.324Z,100816.84
2023-06-07T11:19:04.212Z,100819.66
2023-06-07T11:21:56.260Z,100822.25
2023-06-07T11:24:30.010Z,100802.66
2023-06-07T11:27:00.768Z,100820.41
2023-06-07T11:29:36.890Z,100807.09
2023-06-07T11:32:10.061Z,100815.28
2023-06-07T11:34:40.663Z,100816.88
2023-06-07T11:37:16.442Z,100812.47
2023-06-07T11:39:47.727Z,100816.06
2023-06-07T11:42:18.148Z,100808.06
2023-06-07T11:44:49.807Z,100816.53
2023-06-07T11:47:22.633Z,100806.31
2023-06-07T11:49:53.662Z,100797.25
2023-06-07T11:52:24.808Z,100797.44
2023-06-07T11:54:55.421Z,100800.38
2023-06-07T11:57:34.363Z,100799.56
2023-06-07T12:00:19.600Z,100790.78
2023-06-07T12:02:50.871Z,100807.59
2023-06-07T12:05:28.902Z,100793.44
2023-06-07T12:08:06.645Z,100785.44
2023-06-07T12:10:41.473Z,100786.28
2023-06-07T12:13:18.416Z,100794.56
2023-06-07T12:15:56.400Z,100788.88
2023-06-07T12:18:36.772Z,100782.59
2023-06-07T12:21:09.518Z,100788.91
2023-06-07T12:23:49.855Z,100780.53
2023-06-07T12:26:32.332Z,100782.59
2023-06-07T12:29:03.631Z,100770.06
2023-06-07T12:31:31.676Z,100761.63
2023-06-07T12:34:03.816Z,100757.59
2023-06-07T12:36:34.760Z,100769.72
2023-06-07T12:39:11.378Z,100760.84
2023-06-07T12:41:41.505Z,100757.59
2023-06-07T12:44:11.303Z,100764.81
2023-06-07T12:46:41.111Z,100749.41
2023-06-07T12:49:09.106Z,100751.34
2023-06-07T12:51:38.006Z,100749.91
2023-06-07T12:54:06.101Z,100748.16
2023-06-07T12:56:34.076Z,100757.63
2023-06-07T12:59:04.162Z,100766.34
2023-06-07T13:01:33.007Z,100751.94
2023-06-07T13:04:01.964Z,100756.03
2023-06-07T13:06:30.355Z,100749.38
2023-06-07T13:09:02.271Z,100751.94
2023-06-07T13:11:30.409Z,100750.44
2023-06-07T13:13:58.537Z,100756.69
2023-06-07T13:16:27.945Z,100764.81
2023-06-07T13:18:56.112Z,100757.66
2023-06-07T13:21:24.483Z,100756.88
2023-06-07T13:23:53.899Z,100767.78
2023-06-07T13:26:22.235Z,100765.72
2023-06-07T13:28:50.905Z,100773.88
2023-06-07T13:31:19.066Z,100778.69
2023-06-07T13:33:47.102Z,100782.47
2023-06-07T13:36:15.434Z,100779.06
2023-06-07T13:38:43.353Z,100788.38
2023-06-07T13:41:11.375Z,100777.84
2023-06-07T13:46:11.236Z,100764.75
2023-06-07T13:48:42.544Z,100758.44
2023-06-07T13:51:14.537Z,100773.09
2023-06-07T13:53:48.059Z,100760.19
2023-06-07T13:56:17.637Z,100766.59
2023-06-07T13:58:47.015Z,100766.69
2023-06-07T14:01:16.000Z,100756.38
2023-06-07T14:03:44.304Z,100748.34
2023-06-07T14:06:14.145Z,100742.00
2023-06-07T14:08:42.366Z,100733.50
2023-06-07T14:11:10.547Z,100733.84
2023-06-07T14:13:38.794Z,100735.34
2023-06-07T14:16:06.903Z,100745.94
2023-06-07T14:18:34.861Z,100740.09
2023-06-07T14:21:02.971Z,100742.53
2023-06-07T14:23:31.248Z,100747.66
2023-06-07T14:25:59.439Z,100741.25
2023-06-07T14:28:27.501Z,100729.19
2023-06-07T14:30:55.864Z,100736.75
2023-06-07T14:33:23.861Z,100722.91
2023-06-07T14:35:52.224Z,100726.22
2023-06-07T14:38:20.221Z,100726.59
2023-06-07T14:40:48.273Z,100714.72
2023-06-07T14:43:16.492Z,100712.81
2023-06-07T14:45:46.329Z,100706.13
2023-06-07T14:48:15.402Z,100689.75
2023-06-07T14:50:47.505Z,100682.50
2023-06-07T14:53:15.847Z,100684.44
2023-06-07T14:55:44.082Z,100696.22
2023-06-07T14:58:12.143Z,100684.16
2023-06-07T15:00:42.220Z,100691.13
2023-06-07T15:03:14.072Z,100695.38
2023-06-07T15:05:43.738Z,100704.94
2023-06-07T15:08:12.885Z,100689.44
2023-06-07T15:10:42.276Z,100693.94
2023-06-07T15:13:11.828Z,100674.69
2023-06-07T15:15:41.966Z,100668.97
2023-06-07T15:18:13.559Z,100668.75
2023-06-07T15:20:47.431Z,100676.31
2023-06-07T15:26:14.540Z,100675.25
2023-06-07T15:28:55.480Z,100684.81
2023-06-07T15:31:28.678Z,100685.06
2023-06-07T15:34:11.020Z,100708.03
2023-06-07T15:36:40.460Z,100711.56
2023-06-07T15:39:09.730Z,100728.66
2023-06-07T15:41:37.701Z,100722.28
2023-06-07T15:44:06.114Z,100717.66
2023-06-07T15:46:36.835Z,100722.53
2023-06-07T15:49:06.393Z,100718.56
2023-06-07T15:51:35.772Z,100720.75
2023-06-07T15:54:04.832Z,100721.56
2023-06-07T15:56:34.285Z,100723.63
2023-06-07T15:59:05.481Z,100728.66
2023-06-07T16:01:37.660Z,100725.59
2023-06-07T16:04:08.301Z,100736.41
2023-06-07T16:06:38.661Z,100732.81
2023-06-07T16:09:10.013Z,100743.94
2023-06-07T16:11:42.022Z,100745.84
2023-06-07T16:14:14.149Z,100734.16
2023-06-07T16:16:44.008Z,100742.16
2023-06-07T16:19:13.845Z,100750.66
2023-06-07T16:21:42.238Z,100757.06
2023-06-07T16:24:11.303Z,100757.97
2023-06-07T16:26:39.547Z,100759.25
2023-06-07T16:29:07.681Z,100757.78
2023-06-07T16:31:35.787Z,100750.69
2023-06-07T16:34:03.946Z,100741.22
2023-06-07T16:36:31.985Z,100741.78
2023-06-07T16:38:59.930Z,100751.63
2023-06-07T16:41:29.740Z,100738.03
2023-06-07T16:43:58.087Z,100738.84
2023-06-07T16:46:26.179Z,100723.81
2023-06-07T16:48:55.266Z,100728.50
2023-06-07T16:51:23.243Z,100721.81
2023-06-07T16:53:51.629Z,100720.91
2023-06-07T16:56:20.060Z,100718.59
2023-06-07T16:58:48.157Z,100715.47
2023-06-07T17:01:16.358Z,100703.63
2023-06-07T17:03:44.567Z,100704.56
2023-06-07T17:06:13.159Z,100699.91
2023-06-07T17:08:41.786Z,100695.34
2023-06-07T17:11:11.125Z,100694.25
2023-06-07T17:13:44.887Z,100698.06
2023-06-07T17:16:12.973Z,100700.09
2023-06-07T17:18:41.094Z,100697.94
2023-06-07T17:21:09.249Z,100692.91
2023-06-07T17:23:37.427Z,100693.75
2023-06-07T17:26:05.561Z,100688.53
2023-06-07T17:28:34.565Z,100689.03
2023-06-07T17:31:02.523Z,100690.88
2023-06-07T17:33:30.593Z,100696.31
2023-06-07T17:36:00.458Z,100701.06
2023-06-07T17:38:28.586Z,100703.50
2023-06-07T17:40:57.408Z,100704.94
2023-06-07T17:43:25.961Z,100707.72
2023-06-07T17:45:53.996Z,100705.53
2023-06-07T17:48:22.028Z,100700.44
2023-06-07T17:50:49.950Z,100694.25
2023-06-07T17:53:17.968Z,100689.31
2023-06-07T17:55:46.565Z,100687.06
2023-06-07T17:58:14.900Z,100682.91
2023-06-07T18:00:42.749Z,100690.91
2023-06-07T18:03:12.760Z,100689.69
2023-06-07T18:05:40.864Z,100692.03
2023-06-07T18:08:08.898Z,100700.50
2023-06-07T18:10:37.721Z,100700.25
2023-06-07T18:13:05.767Z,100699.22
2023-06-07T18:15:35.885Z,100697.72
2023-06-07T18:18:03.898Z,100705.22
2023-06-07T18:20:31.910Z,100699.84
2023-06-07T18:22:59.850Z,100698.72
2023-06-07T18:25:27.814Z,100696.19
2023-06-07T18:28:00.252Z,100702.69
2023-06-07T18:30:29.761Z,100701.75
2023-06-07T18:32:57.797Z,100717.41
2023-06-07T18:35:26.212Z,100716.78
2023-06-07T18:37:54.100Z,100719.63
2023-06-07T18:40:22.188Z,100714.84
2023-06-07T18:42:50.121Z,100704.66
2023-06-07T18:45:18.046Z,100709.31
2023-06-07T18:47:46.340Z,100702.59
2023-06-07T18:50:14.488Z,100701.78
2023-06-07T18:52:42.524Z,100703.50
2023-06-07T18:55:10.855Z,100697.94
2023-06-07T18:57:38.817Z,100700.78
2023-06-07T19:00:07.593Z,100703.34
2023-06-07T19:02:35.888Z,100714.06
2023-06-07T19:05:04.342Z,100710.38
2023-06-07T19:07:32.694Z,100706.44
2023-06-07T19:10:00.707Z,100707.22
2023-06-07T19:12:29.274Z,100703.34
2023-06-07T19:14:57.413Z,100701.34
2023-06-07T19:17:25.525Z,100704.97
2023-06-07T19:19:53.572Z,100711.13
2023-06-07T19:22:21.434Z,100723.41
2023-06-07T19:24:51.140Z,100716.56
2023-06-07T19:27:19.860Z,100722.69
2023-06-07T19:29:48.139Z,100718.44
2023-06-07T19:32:16.176Z,100729.03
2023-06-07T19:34:45.699Z,100720.22
2023-06-07T19:37:14.042Z,100724.16
2023-06-07T19:39:41.995Z,100723.78
2023-06-07T19:42:15.478Z,100729.13
2023-06-07T19:44:45.165Z,100719.88
2023-06-07T19:47:14.031Z,100729.59
2023-06-07T19:49:42.380Z,100721.78
2023-06-07T19:52:10.649Z,100733.50
2023-06-07T19:54:38.939Z,100737.19
2023-06-07T19:57:07.870Z,100729.78
2023-06-07T19:59:38.063Z,100738.56
2023-06-07T20:02:08.396Z,100748.50
2023-06-07T20:04:36.656Z,100731.03
2023-06-07T20:07:09.352Z,100735.88
2023-06-07T20:09:40.422Z,100739.72
2023-06-07T20:12:09.687Z,100733.19
2023-06-07T20:14:40.917Z,100740.13
2023-06-07T20:17:10.435Z,100737.34
2023-06-07T20:19:39.473Z,100739.22
2023-06-07T20:22:07.564Z,100748.13
2023-06-07T20:24:35.600Z,100739.88
2023-06-07T20:27:03.652Z,100740.13
2023-06-07T20:29:31.672Z,100735.06
2023-06-07T20:31:59.691Z,100735.50
2023-06-07T20:34:27.879Z,100732.59
2023-06-07T20:36:55.874Z,100727.16
2023-06-07T20:39:23.812Z,100741.66
2023-06-07T20:41:51.770Z,100736.91
2023-06-07T20:44:19.806Z,100732.28
2023-06-07T20:46:48.294Z,100723.97
2023-06-07T20:49:16.466Z,100742.06
2023-06-07T20:51:44.554Z,100734.88
2023-06-07T20:54:12.625Z,100744.94
2023-06-07T20:56:40.847Z,100736.16
2023-06-07T20:59:08.795Z,100741.09
2023-06-07T21:01:38.120Z,100737.16
2023-06-07T21:04:06.739Z,100734.38
2023-06-07T21:06:34.808Z,100737.66
2023-06-07T21:09:04.061Z,100739.03
2023-06-07T21:11:32.141Z,100747.31
2023-06-07T21:14:00.208Z,100754.28
2023-06-07T21:16:28.255Z,100741.06
2023-06-07T21:18:56.603Z,100748.78
2023-06-07T21:21:24.590Z,100761.00
2023-06-07T21:23:52.592Z,100759.84
2023-06-07T21:26:22.458Z,100762.72
2023-06-07T21:28:50.669Z,100759.50
2023-06-07T21:31:18.627Z,100764.25
2023-06-07T21:34:03.099Z,100769.41
2023-06-07T21:36:31.121Z,100763.09
2023-06-07T21:39:00.333Z,100771.50
2023-06-07T21:41:28.284Z,100765.81
2023-06-07T21:43:56.684Z,100763.78
2023-06-07T21:46:24.889Z,100780.09
2023-06-07T21:48:52.942Z,100770.06
2023-06-07T21:51:21.603Z,100773.13
2023-06-07T21:53:50.241Z,100773.84
2023-06-07T21:56:18.420Z,100765.97
2023-06-07T21:58:46.754Z,100780.09
2023-06-07T22:01:15.512Z,100773.09
2023-06-07T22:03:43.501Z,100770.72
2023-06-07T22:06:11.461Z,100772.44
2023-06-07T22:08:39.569Z,100774.00
2023-06-07T22:11:07.513Z,100778.94
2023-06-07T22:13:38.301Z,100782.03
2023-06-07T22:16:06.515Z,100779.91
2023-06-07T22:18:36.556Z,100787.25
2023-06-07T22:21:05.247Z,100787.09
2023-06-07T22:23:33.781Z,100781.81
2023-06-07T22:26:02.338Z,100782.31
2023-06-07T22:28:33.919Z,100782.19
2023-06-07T22:31:04.045Z,100775.25
2023-06-07T22:33:33.471Z,100784.88
2023-06-07T22:36:04.935Z,100788.34
2023-06-07T22:38:32.948Z,100778.91
2023-06-07T22:41:01.751Z,100779.22
2023-06-07T22:43:29.737Z,100784.63
2023-06-07T22:45:57.680Z,100778.47
2023-06-07T22:48:25.713Z,100776.81
2023-06-07T22:50:55.472Z,100776.31
2023-06-07T22:53:25.147Z,100776.00
2023-06-07T22:55:52.980Z,100774.41
2023-06-07T22:58:20.983Z,100767.88
2023-06-07T23:00:49.370Z,100772.44
2023-06-07T23:03:20.051Z,100773.25
2023-06-07T23:05:49.189Z,100766.09
2023-06-07T23:08:20.587Z,100769.84
2023-06-07T23:10:50.922Z,100762.19
2023-06-07T23:13:20.360Z,100773.91
2023-06-07T23:15:48.170Z,100772.94
2023-06-07T23:18:17.351Z,100776.84
2023-06-07T23:20:46.918Z,100769.81
2023-06-07T23:23:14.962Z,100772.28
2023-06-07T23:25:43.300Z,100764.81
2023-06-07T23:28:12.381Z,100767.72
2023-06-07T23:30:41.099Z,100764.94
2023-06-07T23:33:09.139Z,100765.25
2023-06-07T23:35:38.221Z,100764.16
2023-06-07T23:38:06.195Z,100758.44
2023-06-07T23:40:34.044Z,100761.72
2023-06-07T23:43:03.538Z,100764.63
2023-06-07T23:45:31.969Z,100751.44
2023-06-07T23:48:01.234Z,100750.13
2023-06-07T23:50:29.610Z,100748.16
2023-06-07T23:52:57.661Z,100742.94
2023-06-07T23:55:25.905Z,100734.66
2023-06-07T23:57:53.909Z,100737.09
